createdAt,value
2019-03-17T00:01:03.828Z,14.53
2019-03-17T00:03:32.797Z,13.22
2019-03-17T00:06:01.840Z,11.45
2019-03-17T00:08:30.866Z,15.38
2019-03-17T00:10:59.840Z,15.35
2019-03-17T00:13:32.097Z,11.68
2019-03-17T00:16:05.334Z,10.05
2019-03-17T00:18:35.707Z,8.55
2019-03-17T00:21:06.266Z,13.65
2019-03-17T00:23:35.224Z,12.03
2019-03-17T00:26:04.255Z,9.50
2019-03-17T00:28:33.205Z,14.83
2019-03-17T00:31:04.720Z,11.80
2019-03-17T00:33:36.530Z,12.13
2019-03-17T00:36:04.339Z,11.90
2019-03-17T00:38:33.300Z,11.03
2019-03-17T00:41:02.314Z,10.72
2019-03-17T00:43:31.719Z,12.28
2019-03-17T00:46:05.311Z,9.45
2019-03-17T00:48:34.350Z,14.15
2019-03-17T00:51:03.317Z,11.30
2019-03-17T00:53:32.329Z,15.18
2019-03-17T00:56:01.322Z,10.98
2019-03-17T00:58:31.810Z,11.48
2019-03-17T01:01:05.477Z,13.83
2019-03-17T01:03:36.608Z,16.35
2019-03-17T01:06:05.566Z,14.03
2019-03-17T01:08:34.572Z,16.10
2019-03-17T01:11:03.562Z,14.28
2019-03-17T01:13:32.946Z,17.90
2019-03-17T01:16:01.921Z,14.98
2019-03-17T01:18:30.920Z,13.28
2019-03-17T01:21:01.705Z,21.42
2019-03-17T01:23:33.140Z,17.02
2019-03-17T01:26:02.104Z,18.20
2019-03-17T01:28:31.200Z,20.85
2019-03-17T01:31:00.172Z,21.40
2019-03-17T01:33:29.119Z,17.00
2019-03-17T01:35:58.163Z,18.02
2019-03-17T01:38:27.176Z,18.17
2019-03-17T01:40:58.343Z,15.83
2019-03-17T01:43:30.267Z,20.88
2019-03-17T01:46:08.271Z,16.73
2019-03-17T01:48:37.218Z,16.23
2019-03-17T01:51:06.189Z,20.52
2019-03-17T01:53:38.059Z,18.35
2019-03-17T01:56:09.607Z,23.10
2019-03-17T01:58:39.049Z,17.90
2019-03-17T02:03:42.771Z,19.42
2019-03-17T02:12:57.755Z,15.28
2019-03-17T02:15:28.811Z,21.97
2019-03-17T02:17:57.833Z,22.85
2019-03-17T02:20:26.793Z,26.42
2019-03-17T02:22:55.839Z,23.73
2019-03-17T02:25:33.833Z,19.90
2019-03-17T02:28:06.387Z,21.17
2019-03-17T02:30:36.362Z,23.15
2019-03-17T02:33:07.395Z,16.97
2019-03-17T02:35:39.265Z,17.85
2019-03-17T02:38:08.518Z,16.77
2019-03-17T02:40:37.494Z,21.42
2019-03-17T02:43:09.578Z,24.57
2019-03-17T02:45:38.602Z,19.67
2019-03-17T02:48:10.432Z,19.65
2019-03-17T02:50:40.991Z,16.62
2019-03-17T02:53:12.259Z,25.65
2019-03-17T02:55:43.918Z,20.40
2019-03-17T02:58:12.881Z,25.50
2019-03-17T03:00:41.912Z,25.25
2019-03-17T03:03:10.894Z,20.92
2019-03-17T03:05:54.149Z,24.27
2019-03-17T03:08:10.698Z,24.35
2019-03-17T03:10:41.795Z,25.95
2019-03-17T03:13:10.879Z,34.80
2019-03-17T03:15:42.919Z,23.38
2019-03-17T03:21:27.188Z,20.92
2019-03-17T03:24:03.425Z,15.32
2019-03-17T03:26:34.776Z,16.70
2019-03-17T03:29:03.745Z,12.25
2019-03-17T03:31:32.766Z,17.82
2019-03-17T03:34:01.936Z,14.85
2019-03-17T03:36:30.895Z,14.30
2019-03-17T03:39:01.359Z,10.08
2019-03-17T03:41:33.539Z,11.60
2019-03-17T03:44:02.508Z,12.65
2019-03-17T03:49:00.761Z,8.10
2019-03-17T03:51:29.711Z,4.20
2019-03-17T03:54:01.921Z,6.30
2019-03-17T03:56:34.214Z,3.87
2019-03-17T03:59:04.257Z,4.28
2019-03-17T04:04:03.325Z,6.50
2019-03-17T04:06:35.010Z,5.10
2019-03-17T04:09:05.937Z,6.80
2019-03-17T04:11:37.986Z,7.42
2019-03-17T04:14:14.542Z,6.33
2019-03-17T04:16:44.809Z,9.70
2019-03-17T04:19:13.932Z,7.03
2019-03-17T04:21:42.886Z,9.50
2019-03-17T04:24:13.660Z,5.87
2019-03-17T04:26:43.919Z,4.53
2019-03-17T04:29:16.359Z,5.35
2019-03-17T04:31:46.366Z,11.18
2019-03-17T04:34:19.862Z,5.50
2019-03-17T04:36:48.851Z,5.67
2019-03-17T04:39:22.091Z,4.60
2019-03-17T04:41:51.019Z,8.88
2019-03-17T04:44:21.100Z,7.17
2019-03-17T04:46:50.626Z,10.38
2019-03-17T04:49:19.741Z,4.35
2019-03-17T04:51:48.681Z,10.30
2019-03-17T04:54:17.639Z,10.90
2019-03-17T04:56:49.825Z,4.75
2019-03-17T04:59:18.765Z,9.70
2019-03-17T05:01:50.565Z,12.80
2019-03-17T05:04:19.541Z,9.95
2019-03-17T05:06:55.306Z,10.63
2019-03-17T05:09:26.956Z,7.80
2019-03-17T05:11:58.565Z,9.88
2019-03-17T05:14:27.517Z,10.58
2019-03-17T05:16:56.486Z,8.70
2019-03-17T05:19:26.888Z,8.73
2019-03-17T05:21:57.066Z,13.00
2019-03-17T05:24:26.080Z,9.68
2019-03-17T05:26:55.050Z,15.75
2019-03-17T05:29:23.998Z,13.00
2019-03-17T05:31:55.833Z,14.28
2019-03-17T05:34:24.888Z,18.20
2019-03-17T05:37:05.302Z,14.58
2019-03-17T05:39:28.991Z,15.65
2019-03-17T05:42:03.404Z,17.48
2019-03-17T05:44:35.386Z,13.58
2019-03-17T05:47:08.646Z,14.45
2019-03-17T05:49:43.848Z,14.55
2019-03-17T05:52:12.966Z,8.68
2019-03-17T05:54:44.483Z,12.90
2019-03-17T05:57:13.438Z,10.58
2019-03-17T05:59:42.439Z,7.50
2019-03-17T06:02:12.994Z,14.10
2019-03-17T06:04:43.996Z,9.58
2019-03-17T06:07:18.550Z,9.85
2019-03-17T06:09:45.278Z,11.63
2019-03-17T06:12:14.227Z,12.88
2019-03-17T06:14:46.524Z,12.40
2019-03-17T06:17:15.510Z,8.90
2019-03-17T06:19:44.482Z,10.13
2019-03-17T06:22:13.450Z,12.05
2019-03-17T06:24:44.592Z,9.80
2019-03-17T06:27:15.509Z,9.50
2019-03-17T06:29:45.854Z,10.90
2019-03-17T06:32:18.058Z,9.80
2019-03-17T06:34:48.255Z,6.87
2019-03-17T06:37:30.552Z,8.83
2019-03-17T06:39:56.330Z,8.00
2019-03-17T06:42:25.304Z,6.92
2019-03-17T06:44:54.417Z,7.90
2019-03-17T06:47:23.412Z,6.80
2019-03-17T06:49:53.239Z,5.50
2019-03-17T06:52:22.311Z,7.08
2019-03-17T06:54:51.323Z,7.55
2019-03-17T06:57:22.563Z,8.98
2019-03-17T06:59:54.382Z,5.83
2019-03-17T07:02:25.151Z,6.53
2019-03-17T07:04:58.790Z,5.92
2019-03-17T07:07:28.547Z,8.05
2019-03-17T07:09:57.545Z,4.35
2019-03-17T07:12:27.881Z,5.25
2019-03-17T07:14:56.855Z,3.23
2019-03-17T07:17:25.853Z,4.95
2019-03-17T07:19:59.417Z,3.08
2019-03-17T07:25:58.007Z,6.83
2019-03-17T07:28:31.977Z,4.78
2019-03-17T07:31:04.618Z,5.03
2019-03-17T07:33:33.642Z,6.58
2019-03-17T07:36:02.678Z,4.47
2019-03-17T07:38:31.701Z,6.58
2019-03-17T07:41:00.730Z,5.45
2019-03-17T07:43:30.187Z,8.08
2019-03-17T07:45:59.154Z,5.90
2019-03-17T07:48:30.234Z,7.22
2019-03-17T07:50:59.235Z,10.90
2019-03-17T07:53:30.387Z,14.20
2019-03-17T07:55:59.324Z,6.22
2019-03-17T07:58:28.290Z,6.10
2019-03-17T08:01:01.099Z,6.50
2019-03-17T08:03:38.036Z,3.67
2019-03-17T08:06:06.079Z,4.53
2019-03-17T08:08:36.779Z,6.67
2019-03-17T08:11:05.856Z,3.05
2019-03-17T08:13:34.826Z,9.73
2019-03-17T08:18:35.426Z,7.87
2019-03-17T08:21:04.374Z,8.73
2019-03-17T08:23:33.356Z,13.43
2019-03-17T08:26:02.372Z,8.08
2019-03-17T08:28:32.429Z,9.43
2019-03-17T08:33:29.505Z,7.70
2019-03-17T08:35:58.454Z,12.45
2019-03-17T08:38:29.090Z,9.60
2019-03-17T08:40:58.078Z,8.25
2019-03-17T08:43:27.023Z,7.15
2019-03-17T08:45:56.123Z,8.10
2019-03-17T08:48:25.086Z,12.10
2019-03-17T08:51:00.139Z,8.70
2019-03-17T08:53:31.218Z,8.03
2019-03-17T08:56:02.508Z,8.95
2019-03-17T08:58:34.249Z,7.10
2019-03-17T09:01:03.282Z,4.95
2019-03-17T09:03:32.237Z,10.25
2019-03-17T09:06:07.617Z,9.83
2019-03-17T09:08:36.653Z,9.28
2019-03-17T09:11:07.919Z,5.80
2019-03-17T09:13:39.956Z,9.30
2019-03-17T09:16:14.639Z,8.05
2019-03-17T09:18:44.888Z,7.28
2019-03-17T09:21:13.864Z,8.65
2019-03-17T09:23:45.359Z,7.60
2019-03-17T09:26:15.389Z,8.23
2019-03-17T09:28:44.404Z,3.92
2019-03-17T09:31:13.355Z,4.33
2019-03-17T09:33:43.998Z,3.05
2019-03-17T09:36:16.499Z,4.10
2019-03-17T09:38:47.570Z,3.87
2019-03-17T09:41:16.214Z,3.30
2019-03-17T09:43:45.173Z,5.85
2019-03-17T09:46:14.179Z,5.85
2019-03-17T09:48:45.257Z,5.53
2019-03-17T09:51:20.012Z,4.25
2019-03-17T09:53:51.895Z,4.65
2019-03-17T09:56:28.233Z,4.90
2019-03-17T09:58:57.186Z,4.90
2019-03-17T10:01:29.185Z,6.12
2019-03-17T10:04:00.547Z,4.45
2019-03-17T10:06:29.504Z,10.23
2019-03-17T10:09:00.375Z,8.85
2019-03-17T10:11:32.352Z,3.80
2019-03-17T10:14:02.862Z,4.60
2019-03-17T10:16:33.666Z,7.25
2019-03-17T10:19:05.765Z,4.97
2019-03-17T10:21:34.793Z,5.65
2019-03-17T10:24:03.779Z,5.62
2019-03-17T10:26:32.810Z,9.35
2019-03-17T10:29:01.912Z,7.62
2019-03-17T10:31:30.883Z,11.88
2019-03-17T10:33:59.902Z,6.20
2019-03-17T10:36:34.866Z,4.30
2019-03-17T10:39:12.454Z,5.83
2019-03-17T10:44:25.134Z,3.72
2019-03-17T10:46:55.724Z,5.62
2019-03-17T10:49:24.678Z,6.65
2019-03-17T10:51:53.665Z,10.82
2019-03-17T10:54:25.474Z,2.50
2019-03-17T10:56:54.445Z,5.58
2019-03-17T10:59:23.480Z,4.90
2019-03-17T11:01:53.513Z,6.72
2019-03-17T11:04:28.304Z,6.70
2019-03-17T11:06:57.344Z,5.25
2019-03-17T11:09:26.371Z,5.03
2019-03-17T11:11:55.405Z,7.08
2019-03-17T11:14:24.381Z,4.50
2019-03-17T11:17:02.391Z,6.25
2019-03-17T11:19:34.518Z,5.28
2019-03-17T11:22:03.590Z,3.87
2019-03-17T11:24:33.813Z,5.83
2019-03-17T11:27:06.348Z,4.75
2019-03-17T11:29:35.464Z,3.98
2019-03-17T11:32:06.780Z,7.87
2019-03-17T11:34:40.251Z,6.12
2019-03-17T11:37:09.202Z,5.45
2019-03-17T11:39:38.337Z,7.03
2019-03-17T11:42:09.137Z,6.53
2019-03-17T11:44:42.205Z,7.35
2019-03-17T11:47:11.165Z,5.00
2019-03-17T11:49:45.936Z,3.42
2019-03-17T11:52:15.493Z,4.03
2019-03-17T11:54:44.449Z,3.87
2019-03-17T11:57:13.406Z,4.70
2019-03-17T11:59:42.478Z,4.87
2019-03-17T12:02:11.480Z,5.15
2019-03-17T12:04:42.642Z,7.10
2019-03-17T12:07:15.511Z,6.40
2019-03-17T12:09:49.945Z,10.00
2019-03-17T12:12:15.375Z,6.58
2019-03-17T12:14:46.117Z,3.55
2019-03-17T12:17:15.195Z,3.85
2019-03-17T12:19:45.219Z,4.57
2019-03-17T12:22:14.767Z,8.85
2019-03-17T12:24:46.806Z,6.08
2019-03-17T12:27:15.843Z,3.30
2019-03-17T12:29:44.812Z,6.90
2019-03-17T12:32:16.965Z,4.75
2019-03-17T12:34:45.926Z,5.40
2019-03-17T12:39:48.824Z,6.65
2019-03-17T12:42:21.579Z,7.75
2019-03-17T12:44:50.525Z,5.15
2019-03-17T12:47:19.547Z,3.60
2019-03-17T12:49:50.603Z,3.98
2019-03-17T12:52:26.789Z,4.53
2019-03-17T12:54:55.750Z,2.22
2019-03-17T12:57:24.777Z,9.00
2019-03-17T12:59:54.942Z,4.90
2019-03-17T13:04:57.280Z,6.92
2019-03-17T13:07:27.210Z,4.35
2019-03-17T13:09:57.736Z,4.22
2019-03-17T13:12:26.715Z,4.33
2019-03-17T13:14:55.661Z,7.70
2019-03-17T13:17:24.613Z,5.05
2019-03-17T13:19:53.640Z,3.40
2019-03-17T13:22:23.482Z,5.70
2019-03-17T13:24:54.732Z,3.42
2019-03-17T13:27:24.562Z,6.40
2019-03-17T13:29:56.838Z,2.47
2019-03-17T13:32:31.399Z,4.75
2019-03-17T13:35:00.393Z,7.85
2019-03-17T13:37:31.679Z,6.72
2019-03-17T13:40:03.522Z,5.35
2019-03-17T13:42:34.032Z,6.58
2019-03-17T13:45:21.053Z,4.90
2019-03-17T13:47:53.931Z,3.20
2019-03-17T13:50:23.231Z,3.75
2019-03-17T13:52:52.272Z,4.08
2019-03-17T13:55:27.190Z,2.77
2019-03-17T13:58:03.746Z,3.98
2019-03-17T14:00:32.753Z,3.85
2019-03-17T14:03:04.831Z,3.25
2019-03-17T14:05:33.842Z,3.75
2019-03-17T14:08:02.968Z,6.60
2019-03-17T14:10:40.841Z,3.57
2019-03-17T14:13:02.562Z,1.72
2019-03-17T14:15:31.521Z,3.85
2019-03-17T14:18:00.532Z,3.20
2019-03-17T14:20:29.567Z,8.13
2019-03-17T14:23:00.352Z,3.05
2019-03-17T14:25:32.833Z,4.58
2019-03-17T14:28:01.892Z,2.90
2019-03-17T14:30:30.839Z,4.97
2019-03-17T14:32:59.807Z,3.80
2019-03-17T14:35:32.723Z,6.03
2019-03-17T14:38:01.763Z,8.70
2019-03-17T14:40:34.590Z,6.83
2019-03-17T14:43:06.591Z,6.95
2019-03-17T14:45:41.397Z,6.97
2019-03-17T14:48:10.423Z,3.67
2019-03-17T14:50:41.599Z,5.97
2019-03-17T14:53:16.219Z,4.72
2019-03-17T14:55:49.883Z,4.75
2019-03-17T14:58:21.213Z,6.08
2019-03-17T15:00:50.161Z,5.40
2019-03-17T15:03:20.091Z,3.20
2019-03-17T15:05:49.034Z,5.45
2019-03-17T15:08:20.855Z,5.35
2019-03-17T15:10:49.826Z,6.22
2019-03-17T15:13:18.833Z,5.95
2019-03-17T15:18:20.482Z,4.58
2019-03-17T15:20:49.471Z,3.33
2019-03-17T15:23:18.669Z,7.28
2019-03-17T15:25:47.706Z,5.43
2019-03-17T15:28:16.695Z,7.40
2019-03-17T15:31:00.367Z,4.20
2019-03-17T15:33:16.323Z,4.17
2019-03-17T15:35:45.275Z,3.65
2019-03-17T15:38:14.235Z,6.70
2019-03-17T15:40:43.207Z,6.10
2019-03-17T15:43:12.181Z,4.00
2019-03-17T15:45:48.295Z,4.83
2019-03-17T15:48:19.285Z,5.78
2019-03-17T15:50:47.931Z,5.70
2019-03-17T15:53:16.954Z,4.92
2019-03-17T15:55:46.002Z,5.72
2019-03-17T15:58:14.986Z,7.37
2019-03-17T16:00:43.982Z,4.53
2019-03-17T16:03:12.947Z,4.75
2019-03-17T16:05:44.044Z,9.33
2019-03-17T16:08:13.010Z,3.90
2019-03-17T16:10:43.464Z,4.65
2019-03-17T16:13:12.430Z,4.62
2019-03-17T16:15:41.381Z,5.58
2019-03-17T16:18:10.501Z,7.30
2019-03-17T16:20:39.448Z,2.75
2019-03-17T16:23:09.004Z,5.28
2019-03-17T16:25:38.454Z,5.40
2019-03-17T16:28:07.419Z,4.53
2019-03-17T16:30:36.412Z,5.45
2019-03-17T16:33:14.608Z,5.75
2019-03-17T16:35:46.278Z,6.10
2019-03-17T16:38:19.315Z,5.60
2019-03-17T16:40:52.969Z,2.70
2019-03-17T16:43:23.534Z,5.90
2019-03-17T16:45:53.643Z,5.62
2019-03-17T16:50:50.733Z,4.72
2019-03-17T16:53:22.077Z,5.78
2019-03-17T16:55:51.053Z,4.17
2019-03-17T16:58:20.005Z,5.33
2019-03-17T17:00:56.315Z,4.03
2019-03-17T17:03:29.095Z,3.70
2019-03-17T17:05:58.065Z,8.48
2019-03-17T17:08:27.340Z,8.18
2019-03-17T17:11:00.644Z,3.98
2019-03-17T17:13:29.383Z,5.47
2019-03-17T17:15:58.363Z,3.33
2019-03-17T17:18:27.332Z,3.80
2019-03-17T17:20:56.327Z,6.80
2019-03-17T17:23:30.259Z,4.40
2019-03-17T17:25:59.257Z,2.95
2019-03-17T17:28:28.263Z,4.10
2019-03-17T17:30:57.213Z,4.10
2019-03-17T17:33:27.928Z,5.97
2019-03-17T17:35:58.081Z,5.03
2019-03-17T17:38:27.093Z,5.90
2019-03-17T17:40:56.093Z,3.77
2019-03-17T17:43:25.287Z,6.20
2019-03-17T17:45:55.937Z,6.40
2019-03-17T17:48:24.896Z,5.08
2019-03-17T17:50:53.874Z,5.05
2019-03-17T17:53:27.421Z,6.17
2019-03-17T17:55:56.377Z,6.42
2019-03-17T17:58:26.821Z,7.55
2019-03-17T18:00:55.763Z,5.25
2019-03-17T18:03:26.857Z,4.78
2019-03-17T18:05:55.819Z,8.88
2019-03-17T18:08:27.304Z,7.37
2019-03-17T18:10:58.104Z,6.60
2019-03-17T18:13:32.286Z,5.40
2019-03-17T18:16:01.238Z,4.60
2019-03-17T18:18:30.180Z,7.30
2019-03-17T18:21:01.684Z,4.15
2019-03-17T18:23:30.706Z,8.40
2019-03-17T18:26:01.350Z,5.47
2019-03-17T18:28:30.294Z,4.00
2019-03-17T18:31:02.306Z,4.22
2019-03-17T18:33:34.298Z,4.12
2019-03-17T18:36:03.259Z,5.33
2019-03-17T18:38:32.299Z,6.03
2019-03-17T18:41:05.035Z,7.67
2019-03-17T18:43:40.939Z,7.00
2019-03-17T18:46:09.620Z,5.87
2019-03-17T18:48:38.606Z,7.05
2019-03-17T18:51:08.184Z,5.47
2019-03-17T18:53:37.170Z,5.85
2019-03-17T18:56:06.198Z,8.50
2019-03-17T18:58:35.222Z,6.55
2019-03-17T19:01:07.937Z,6.92
2019-03-17T19:03:36.901Z,7.20
2019-03-17T19:06:07.477Z,6.12
2019-03-17T19:08:36.431Z,6.97
2019-03-17T19:11:05.472Z,3.65
2019-03-17T19:13:37.640Z,4.42
2019-03-17T19:16:06.611Z,6.42
2019-03-17T19:18:35.555Z,8.18
2019-03-17T19:21:05.686Z,7.70
2019-03-17T19:26:07.093Z,10.50
2019-03-17T19:28:37.739Z,8.55
2019-03-17T19:31:09.429Z,8.53
2019-03-17T19:33:38.388Z,9.68
2019-03-17T19:36:07.511Z,8.13
2019-03-17T19:38:36.491Z,3.92
2019-03-17T19:41:07.289Z,10.65
2019-03-17T19:43:38.178Z,5.87
2019-03-17T19:46:09.760Z,5.65
2019-03-17T19:48:38.721Z,5.75
2019-03-17T19:51:08.115Z,7.28
2019-03-17T19:53:37.107Z,5.00
2019-03-17T19:56:07.563Z,8.20
2019-03-17T19:58:36.603Z,9.18
2019-03-17T20:01:08.547Z,6.03
2019-03-17T20:03:40.887Z,6.30
2019-03-17T20:06:10.766Z,7.28
2019-03-17T20:08:42.794Z,8.03
2019-03-17T20:11:11.971Z,9.33
2019-03-17T20:13:41.009Z,5.40
2019-03-17T20:16:10.042Z,6.58
2019-03-17T20:18:42.302Z,8.85
2019-03-17T20:21:15.552Z,9.43
2019-03-17T20:23:44.527Z,11.50
2019-03-17T20:26:16.628Z,9.35
2019-03-17T20:28:47.395Z,7.97
2019-03-17T20:31:16.366Z,9.95
2019-03-17T20:33:45.321Z,7.05
2019-03-17T20:36:17.352Z,8.78
2019-03-17T20:38:46.327Z,12.25
2019-03-17T20:41:18.417Z,7.22
2019-03-17T20:43:47.575Z,7.78
2019-03-17T20:46:18.082Z,12.23
2019-03-17T20:48:50.944Z,10.45
2019-03-17T20:51:21.930Z,9.68
2019-03-17T20:53:50.616Z,10.05
2019-03-17T20:56:19.566Z,4.87
2019-03-17T20:58:53.130Z,7.92
2019-03-17T21:01:22.123Z,8.43
2019-03-17T21:03:53.462Z,3.25
2019-03-17T21:06:23.954Z,7.92
2019-03-17T21:08:52.938Z,13.28
2019-03-17T21:11:21.928Z,10.82
2019-03-17T21:13:50.884Z,5.45
2019-03-17T21:16:23.028Z,9.73
2019-03-17T21:18:53.651Z,7.75
2019-03-17T21:21:24.140Z,4.85
2019-03-17T21:23:53.096Z,6.50
2019-03-17T21:26:22.058Z,7.10
2019-03-17T21:28:51.018Z,6.20
2019-03-17T21:31:21.646Z,4.80
2019-03-17T21:33:50.638Z,10.35
2019-03-17T21:36:19.614Z,10.53
2019-03-17T21:38:48.590Z,9.70
2019-03-17T21:41:18.852Z,9.80
2019-03-17T21:43:59.224Z,9.35
2019-03-17T21:46:24.167Z,7.65
2019-03-17T21:48:53.123Z,7.35
2019-03-17T21:51:22.077Z,6.40
2019-03-17T21:54:00.462Z,8.10
2019-03-17T21:56:29.445Z,9.38
2019-03-17T21:58:59.264Z,6.08
2019-03-17T22:01:31.139Z,6.72
2019-03-17T22:04:00.093Z,5.28
2019-03-17T22:06:33.027Z,6.10
2019-03-17T22:09:02.246Z,7.35
2019-03-17T22:11:32.408Z,7.65
2019-03-17T22:14:11.474Z,5.83
2019-03-17T22:16:34.511Z,9.50
2019-03-17T22:19:05.248Z,5.87
2019-03-17T22:21:34.290Z,6.65
2019-03-17T22:24:03.305Z,11.55
2019-03-17T22:26:39.667Z,8.88
2019-03-17T22:29:06.962Z,5.78
2019-03-17T22:31:41.045Z,8.43
2019-03-17T22:34:10.045Z,10.03
2019-03-17T22:36:45.057Z,8.65
2019-03-17T22:39:17.210Z,5.33
2019-03-17T22:41:46.173Z,19.05
2019-03-17T22:44:24.135Z,7.90
2019-03-17T22:46:51.189Z,5.40
2019-03-17T22:49:22.704Z,8.88
2019-03-17T22:51:53.369Z,9.35
2019-03-17T22:54:22.719Z,10.60
2019-03-17T22:56:54.857Z,9.90
2019-03-17T22:59:23.882Z,10.38
2019-03-17T23:01:57.292Z,10.95
2019-03-17T23:04:28.360Z,9.65
2019-03-17T23:07:01.458Z,10.18
2019-03-17T23:09:32.050Z,7.45
2019-03-17T23:12:01.004Z,7.85
2019-03-17T23:14:36.715Z,11.57
2019-03-17T23:17:07.750Z,5.60
2019-03-17T23:19:39.366Z,10.95
2019-03-17T23:22:08.323Z,8.58
2019-03-17T23:24:41.805Z,10.93
2019-03-17T23:27:14.530Z,6.62
2019-03-17T23:29:45.101Z,9.03
2019-03-17T23:32:14.079Z,11.08
2019-03-17T23:34:43.032Z,6.08
2019-03-17T23:37:15.288Z,6.42
2019-03-17T23:39:46.074Z,8.10
2019-03-17T23:42:23.936Z,10.60
2019-03-17T23:44:54.557Z,8.28
2019-03-17T23:47:24.599Z,8.45
2019-03-17T23:52:25.065Z,6.33
2019-03-17T23:54:58.144Z,7.97
2019-03-17T23:57:27.093Z,4.03
2019-03-17T23:59:58.488Z,4.83
